AirNav   Everest Fuels
 
 502 users online  

95IL Henderson Airport
Rosiclare, Illinois, USA

GOING TO ROSICLARE?


FAA INFORMATION EFFECTIVE 07 NOVEMBER 2019

Location

FAA Identifier: 95IL
Lat/Long: 37-29-10.1800N 088-24-00.1450W
37-29.169667N 088-24.002417W
37.4861611,-88.4000403
(estimated)
Elevation: 485 ft. / 148 m (estimated)
Variation: 01E (1985)
From city: 4 miles NW of ROSICLARE, IL
Time zone: UTC -6 (UTC -5 during Daylight Saving Time)
Zip code: 62938

Airport Operations

Airport use: Private use. Permission required prior to landing
Activation date: 07/1975
Control tower: no
ARTCC: MEMPHIS CENTER
FSS: COLUMBIA FLIGHT SERVICE STATION
Attendance: UNATNDD
Wind indicator: no
Segmented circle: no

Airport Communications

WX AWOS-3P at 5M9 (17 nm SE): 118.15 (270-965-4877)

Nearby radio navigation aids

VOR radial/distance  VOR name  Freq  Var
MWAr115/33.2MARION VOR/DME110.4004E
CNGr033/35.4CUNNINGHAM VOR/DME113.1003E

Airport Services

Runway Information

Runway 3/21

Dimensions: 2750 x 100 ft. / 838 x 30 m
Surface: turf
RUNWAY 3  RUNWAY 21
Traffic pattern: leftleft

Airport Ownership and Management from official FAA records

Ownership: Privately-owned
Owner: CINDY HENDERSON
RR 1 BOX 180C
GOLCONDA, IL 62938
Phone 618-264-2991
Manager: CINDY HENDERSON
RR 1 BOX 180C
GOLCONDA, IL 62938
Phone 618-264-2991

Additional Remarks

FOR CD CTC MEMPHIS ARTCC AT 901-368-8453.

Instrument Procedures

There are no published instrument procedures at 95IL.

Some nearby airports with instrument procedures:

5M9 - Marion-Crittenden County Airport (17 nm SE)
KHSB - Harrisburg-Raleigh Airport (21 nm N)
KTWT - Sturgis Municipal Airport (21 nm E)
KPAH - Barkley Regional Airport (31 nm SW)
KMWA - Veterans Airport of Southern Illinois (33 nm NW)
 
Loc | Ops | Rwys | IFR | FBO | Links
Com | Nav | Svcs | Stats | Notes
Area around 95IL (Henderson Airport)
 
Road maps at: MapQuest Bing Google
 
Aerial photo
No photo
 
Sectional chart

 
Airport distance calculator
Flying to Henderson Airport? Find the distance to fly.

From to 95IL

Sunrise and sunset
Times for 22-Nov-2019
 Local
(UTC-6)
 Zulu
(UTC)
Morning civil twilight06:1312:13
Sunrise06:4212:42
Sunset16:3822:38
Evening civil twilight17:0623:06

Current date and time
Zulu (UTC)  22-Nov-2019 08:19:46
Local (UTC-6)  22-Nov-2019 02:19:46
 
METAR
K5M9 
17nm SE 
220755Z AUTO 02009KT 3SM +RA OVC006 08/08 A3003 RMK AO2 T00800077
KHSB 
21nm N 
220755Z AUTO 36008G15KT 3SM UP SCT009 OVC016 06/05 A3007 RMK AO2 P0010 T00630046
KM30 
25nm SW 
220755Z AUTO 35007KT 7SM +RA OVC008 09/08 A3004 RMK AO2 P0030 T00900081
KPAH 
31nm SW 
220753Z AUTO 01010KT 5SM RA BR BKN007 OVC048 09/08 A3002 RMK AO2 SLP164 P0022 T00940083
TAF
KPAH 
31nm SW 
220530Z 2206/2306 36008KT 4SM RA SCT003 OVC005 TEMPO 2206/2210 2SM BR OVC003 FM221300 02010KT 5SM -SHRA OVC008 FM221500 03011KT P6SM VCSH OVC010 FM221900 04009KT P6SM SCT025 OVC035 FM230200 04008KT P6SM OVC025
NOTAMs
Click for the latest NOTAMs
NOTAMs are issued by the DoD/FAA and will open in a separate window not controlled by AirNav.

 

 
 

Would you like to see your business listed on this page?

 If your business provides an interesting product or service to pilots, flight crews, aircraft, or users of the Henderson Airport, you should consider listing it here.  To start the listing process, click on the button below
 
Add a business
 

Other Pages about Henderson Airport

Update a link
 
Copyright © AirNav, LLC. All rights reserved. Privacy Policy  Contact